Time;durP1;ratioP1;P1;durP2;ratioP2;P2;SDS_P1;SDS_P2;PMS_P1;PMS_P2;Temp;Humidity;BMP_temperature;BMP_pressure;BME280_temperature;BME280_humidity;BME280_pressure;Samples;Min_cycle;Max_cycle;Signal;HPM_P1;HPM_P2
2023/01/18 00:00:30;;;;;;;1999.90;999.90;;;-2.30;99.90;;;;;;5091346;28;20039;-74
2023/01/18 00:02:56;;;;;;;1999.90;999.90;;;-2.20;99.90;;;;;;5094653;28;20028;-75
2023/01/18 00:05:22;;;;;;;1999.90;999.90;;;-2.20;99.90;;;;;;5099617;28;20422;-74
2023/01/18 00:07:49;;;;;;;1999.90;999.90;;;-2.20;99.90;;;;;;5098718;28;20030;-74
2023/01/18 00:10:15;;;;;;;985.88;703.65;;;-2.10;99.90;;;;;;5102781;28;20035;-75
2023/01/18 00:12:40;;;;;;;970.80;693.67;;;-1.90;99.90;;;;;;5073881;28;20048;-75
2023/01/18 00:15:07;;;;;;;1999.90;999.90;;;-1.70;99.90;;;;;;5102834;28;20042;-75
2023/01/18 00:17:32;;;;;;;1999.90;999.90;;;-1.60;99.90;;;;;;5092039;28;20062;-74
2023/01/18 00:19:58;;;;;;;1999.90;999.90;;;-1.60;99.90;;;;;;5092555;28;20066;-74
2023/01/18 00:22:25;;;;;;;1999.90;999.90;;;-1.70;99.90;;;;;;5099531;28;20432;-75
2023/01/18 00:24:50;;;;;;;1999.90;999.90;;;-1.70;99.90;;;;;;5089868;28;20049;-75
2023/01/18 00:27:16;;;;;;;1999.90;999.90;;;-1.70;99.90;;;;;;5095364;28;20126;-75
2023/01/18 00:29:41;;;;;;;1999.90;999.90;;;-1.70;99.90;;;;;;5092831;28;20035;-74
2023/01/18 00:32:07;;;;;;;1063.07;781.03;;;-1.90;99.90;;;;;;5094877;28;20060;-74
2023/01/18 00:34:33;;;;;;;744.45;702.63;;;-2.10;99.90;;;;;;5098002;28;20502;-74
2023/01/18 00:36:58;;;;;;;1999.90;999.90;;;-2.00;99.90;;;;;;5096781;28;20024;-74
2023/01/18 00:39:24;;;;;;;993.17;716.60;;;-2.00;99.90;;;;;;5098754;28;20783;-74
2023/01/18 00:44:34;;;;;;;1029.85;751.03;;;-2.10;99.90;;;;;;5103688;28;20084;-75
2023/01/18 00:46:59;;;;;;;1030.18;751.88;;;-2.20;99.90;;;;;;5095577;28;20028;-74
2023/01/18 00:49:25;;;;;;;720.05;680.92;;;-2.30;99.90;;;;;;5097726;28;20634;-75
2023/01/18 00:51:51;;;;;;;1035.82;756.53;;;-2.30;99.90;;;;;;5099749;28;20043;-75
2023/01/18 00:54:17;;;;;;;1034.20;754.53;;;-2.20;99.90;;;;;;5100351;28;20032;-74
2023/01/18 00:56:43;;;;;;;1034.68;753.67;;;-2.20;99.90;;;;;;5096232;28;20027;-75
2023/01/18 00:59:08;;;;;;;1999.90;999.90;;;-2.10;99.90;;;;;;5093298;28;20417;-75
2023/01/18 01:01:34;;;;;;;1999.90;999.90;;;-2.00;99.90;;;;;;5098998;28;20474;-75
2023/01/18 01:06:44;;;;;;;1999.90;999.90;;;-2.00;99.90;;;;;;5099183;28;20575;-75
2023/01/18 01:09:22;;;;;;;1999.90;999.90;;;-1.90;99.90;;;;;;5096774;28;20063;-75
2023/01/18 01:28:16;;;;;;;862.38;584.20;;;-1.60;99.90;;;;;;5087629;28;20058;-75
2023/01/18 01:30:43;;;;;;;1999.90;999.90;;;-1.50;99.90;;;;;;5101073;28;20040;-74
2023/01/18 01:33:09;;;;;;;1999.90;999.90;;;-1.40;99.90;;;;;;5087709;28;20493;-75
2023/01/18 01:35:34;;;;;;;1999.90;999.90;;;-1.50;99.90;;;;;;5105599;28;20061;-75
2023/01/18 01:38:00;;;;;;;1196.40;684.53;;;-1.50;99.90;;;;;;5099798;28;20802;-75
2023/01/18 01:40:26;;;;;;;1999.90;999.90;;;-1.60;99.90;;;;;;5097882;28;20035;-74
2023/01/18 01:42:51;;;;;;;1999.90;999.90;;;-1.60;99.90;;;;;;5101855;28;20461;-74
2023/01/18 01:45:18;;;;;;;1999.90;999.90;;;-1.60;99.90;;;;;;5096627;28;20028;-74
2023/01/18 01:47:46;;;;;;;579.55;548.90;;;-1.60;99.90;;;;;;5104928;28;20103;-75
2023/01/18 01:50:27;;;;;;;659.38;624.35;;;-1.50;99.90;;;;;;5100455;28;20043;-75
2023/01/18 01:52:54;;;;;;;513.92;489.60;;;-1.30;99.90;;;;;;5113507;27;20385;-74
2023/01/18 01:55:22;;;;;;;619.33;586.65;;;-1.50;99.90;;;;;;5100716;28;20055;-74
2023/01/18 01:57:55;;;;;;;588.90;557.53;;;-1.50;99.90;;;;;;5076171;28;20036;-75
2023/01/18 02:00:24;;;;;;;605.40;574.97;;;-1.30;99.90;;;;;;5101906;28;20043;-74
2023/01/18 02:02:59;;;;;;;586.20;555.78;;;-1.40;99.90;;;;;;5097778;28;20027;-75
2023/01/18 02:05:26;;;;;;;636.92;604.53;;;-1.40;99.90;;;;;;5095781;28;20032;-74
2023/01/18 02:07:54;;;;;;;679.47;643.40;;;-1.30;99.90;;;;;;5096813;28;20028;-75
2023/01/18 02:10:20;;;;;;;536.47;499.63;;;-1.30;99.90;;;;;;5097466;28;20027;-74
2023/01/18 02:12:48;;;;;;;1999.90;999.90;;;-1.20;99.90;;;;;;5094911;28;20032;-76
2023/01/18 02:15:14;;;;;;;1999.90;999.90;;;-1.00;99.90;;;;;;5095069;28;20397;-75
2023/01/18 02:18:21;;;;;;;1999.90;999.90;;;-1.00;99.90;;;;;;5104193;28;20031;-74
2023/01/18 02:21:26;;;;;;;1620.57;863.03;;;-0.90;99.90;;;;;;5125724;27;20020;-74
2023/01/18 02:24:17;;;;;;;595.22;565.90;;;-0.90;99.90;;;;;;5096658;28;20056;-74
2023/01/18 02:26:55;;;;;;;875.10;601.22;;;-0.90;99.90;;;;;;5088468;28;20421;-75
2023/01/18 02:29:54;;;;;;;628.58;594.47;;;-0.80;99.90;;;;;;5085301;28;20394;-74
2023/01/18 02:32:46;;;;;;;543.63;517.92;;;-0.80;99.90;;;;;;5090353;28;20020;-75
2023/01/18 02:35:43;;;;;;;559.78;523.75;;;-0.80;99.90;;;;;;5082324;28;20044;-76
2023/01/18 02:38:13;;;;;;;966.72;682.42;;;-0.80;99.90;;;;;;5089289;28;20034;-74
2023/01/18 02:41:10;;;;;;;1999.90;999.90;;;-0.60;99.90;;;;;;5092196;28;20449;-74
2023/01/18 02:46:32;;;;;;;435.13;407.50;;;-0.70;99.90;;;;;;5092499;28;20563;-76
2023/01/18 02:49:08;;;;;;;486.35;463.83;;;-0.70;99.90;;;;;;5089811;28;20033;-76
2023/01/18 02:51:34;;;;;;;572.25;536.97;;;-0.90;99.90;;;;;;5083377;28;20157;-75
2023/01/18 02:54:02;;;;;;;573.58;546.88;;;-0.90;99.90;;;;;;5083611;28;20027;-75
2023/01/18 02:56:46;;;;;;;1369.78;847.45;;;-0.90;99.90;;;;;;5079002;28;20112;-75
2023/01/18 02:59:16;;;;;;;776.90;733.65;;;-0.80;99.90;;;;;;5095277;28;20031;-74
2023/01/18 03:01:44;;;;;;;650.22;617.28;;;-1.00;99.90;;;;;;5097794;28;20024;-75
2023/01/18 03:04:12;;;;;;;566.22;539.75;;;-0.80;99.90;;;;;;5096744;28;20024;-75
2023/01/18 03:06:42;;;;;;;660.67;626.28;;;-1.00;99.90;;;;;;5097543;28;20024;-75
2023/01/18 03:09:08;;;;;;;552.97;526.47;;;-1.00;99.90;;;;;;5103109;28;20164;-76
2023/01/18 03:12:01;;;;;;;613.33;569.85;;;-0.90;99.90;;;;;;5096813;28;21361;-75
2023/01/18 03:14:45;;;;;;;1370.15;848.13;;;-0.70;99.90;;;;;;5103781;28;20450;-75
2023/01/18 03:17:16;;;;;;;775.20;730.13;;;-0.70;99.90;;;;;;5093994;28;20035;-74
2023/01/18 03:20:06;;;;;;;705.35;661.47;;;-0.70;99.90;;;;;;5100220;28;20032;-74
2023/01/18 03:25:44;;;;;;;1999.90;999.90;;;-0.50;99.90;;;;;;5095979;28;20093;-74
2023/01/18 03:34:21;;;;;;;762.70;718.63;;;-0.30;99.90;;;;;;5099333;28;20038;-74
2023/01/18 03:36:51;;;;;;;744.70;699.38;;;-0.30;99.90;;;;;;5094581;28;20040;-74
2023/01/18 03:39:19;;;;;;;443.88;404.70;;;-0.30;99.90;;;;;;5095539;28;20028;-74
2023/01/18 03:41:49;;;;;;;581.47;545.05;;;-0.20;99.90;;;;;;5090897;28;20024;-74
2023/01/18 03:44:21;;;;;;;799.17;751.13;;;-0.10;99.90;;;;;;5095835;28;20109;-73
2023/01/18 03:46:47;;;;;;;802.83;754.50;;;-0.10;99.90;;;;;;5093039;28;20471;-73
2023/01/18 03:49:15;;;;;;;783.03;734.97;;;0.00;99.90;;;;;;5097621;28;20081;-74
2023/01/18 03:52:05;;;;;;;762.35;713.22;;;0.00;99.90;;;;;;5084842;28;20024;-74
2023/01/18 03:54:53;;;;;;;545.80;511.63;;;0.00;99.90;;;;;;5099779;28;20016;-73
2023/01/18 03:57:34;;;;;;;509.80;486.67;;;0.10;99.90;;;;;;5086002;28;20028;-74
2023/01/18 04:00:01;;;;;;;533.25;505.73;;;0.10;99.90;;;;;;5093354;28;20024;-73
2023/01/18 04:02:27;;;;;;;569.22;541.05;;;0.10;99.90;;;;;;5098834;28;20028;-72
2023/01/18 04:04:56;;;;;;;564.22;537.72;;;0.00;99.90;;;;;;5097426;28;20391;-73
2023/01/18 04:07:25;;;;;;;630.97;600.13;;;0.00;99.90;;;;;;5098904;28;20051;-74
2023/01/18 04:09:50;;;;;;;578.25;550.00;;;0.00;99.90;;;;;;5089625;28;20032;-73
2023/01/18 04:12:16;;;;;;;597.45;567.65;;;0.00;99.90;;;;;;5096873;28;20122;-73
2023/01/18 04:14:42;;;;;;;506.95;483.30;;;-0.10;99.90;;;;;;5095810;28;20028;-74
2023/01/18 04:17:07;;;;;;;485.20;464.58;;;-0.20;99.90;;;;;;5099655;28;20515;-74
2023/01/18 04:19:33;;;;;;;547.45;522.42;;;-0.30;99.90;;;;;;5081757;28;20052;-73
2023/01/18 04:21:59;;;;;;;526.90;502.35;;;-0.20;99.90;;;;;;5092032;28;20020;-73
2023/01/18 04:24:24;;;;;;;520.15;496.33;;;-0.20;99.90;;;;;;5102795;28;20024;-73
2023/01/18 04:26:50;;;;;;;521.83;497.50;;;-0.20;99.90;;;;;;5095174;28;20028;-73
2023/01/18 04:29:16;;;;;;;501.30;477.70;;;-0.10;99.90;;;;;;5093868;28;20098;-73
2023/01/18 04:31:41;;;;;;;527.10;503.02;;;0.00;99.90;;;;;;5098656;28;20024;-73
2023/01/18 04:34:07;;;;;;;600.20;570.22;;;0.10;99.90;;;;;;5098877;28;20044;-73
2023/01/18 04:36:33;;;;;;;472.95;452.52;;;0.10;99.90;;;;;;5083687;28;20028;-73
2023/01/18 04:38:58;;;;;;;526.58;501.90;;;0.10;99.90;;;;;;5096387;28;20032;-73
2023/01/18 04:41:24;;;;;;;468.05;448.23;;;0.10;99.90;;;;;;5098970;28;20076;-72
2023/01/18 04:43:49;;;;;;;574.17;545.85;;;0.10;99.90;;;;;;5091698;28;20401;-73
2023/01/18 04:46:15;;;;;;;477.90;456.50;;;0.00;99.90;;;;;;5095311;28;20032;-73
2023/01/18 04:48:41;;;;;;;550.53;524.67;;;0.00;99.90;;;;;;5091513;28;20028;-73
2023/01/18 04:51:12;;;;;;;524.20;500.45;;;0.10;99.90;;;;;;5093351;28;20128;-73
2023/01/18 04:53:42;;;;;;;522.85;499.02;;;0.00;99.90;;;;;;5095678;28;20034;-73
2023/01/18 04:56:08;;;;;;;485.10;463.83;;;0.00;99.90;;;;;;5095324;28;20031;-73
2023/01/18 04:58:34;;;;;;;556.28;527.03;;;0.00;99.90;;;;;;5097815;28;20050;-72
2023/01/18 05:01:01;;;;;;;455.70;436.02;;;-0.10;99.90;;;;;;5090990;28;20547;-73
2023/01/18 05:03:27;;;;;;;452.60;431.52;;;-0.10;99.90;;;;;;5092522;28;20024;-73
2023/01/18 05:05:53;;;;;;;483.65;462.75;;;-0.10;99.90;;;;;;5097862;28;20032;-73
2023/01/18 05:08:19;;;;;;;476.58;456.50;;;0.00;99.90;;;;;;5090847;28;20036;-72
2023/01/18 05:10:45;;;;;;;448.15;429.13;;;-0.10;99.90;;;;;;5103869;28;20470;-73
2023/01/18 05:13:10;;;;;;;468.65;448.95;;;-0.10;99.90;;;;;;5097614;28;20118;-72
2023/01/18 05:15:36;;;;;;;499.08;477.45;;;-0.10;99.90;;;;;;5107995;28;20075;-72
2023/01/18 05:18:01;;;;;;;486.50;465.55;;;-0.10;99.90;;;;;;5100833;28;20143;-72
2023/01/18 05:20:27;;;;;;;485.58;465.05;;;-0.10;99.90;;;;;;5102818;28;20131;-73
2023/01/18 05:22:53;;;;;;;485.65;464.30;;;-0.20;99.90;;;;;;5105962;28;20027;-72
2023/01/18 05:25:19;;;;;;;471.92;451.80;;;-0.20;99.90;;;;;;5095907;28;20032;-72
2023/01/18 05:27:44;;;;;;;514.28;491.80;;;-0.10;99.90;;;;;;5105552;28;20041;-72
2023/01/18 05:30:10;;;;;;;441.95;423.67;;;-0.10;99.90;;;;;;5098046;28;20125;-73
2023/01/18 05:32:36;;;;;;;461.10;441.77;;;0.00;99.90;;;;;;5104912;28;20028;-73
2023/01/18 05:35:03;;;;;;;580.92;551.70;;;0.10;99.90;;;;;;5101560;28;20027;-73
2023/01/18 05:37:29;;;;;;;533.17;509.50;;;0.10;99.90;;;;;;5097902;28;20036;-73
2023/01/18 05:39:54;;;;;;;490.55;470.17;;;0.10;99.90;;;;;;5104219;28;20024;-73
2023/01/18 05:42:20;;;;;;;518.17;495.92;;;0.10;99.90;;;;;;5098078;28;20028;-72
2023/01/18 05:44:45;;;;;;;573.72;545.45;;;0.10;99.90;;;;;;5105680;28;20070;-72
2023/01/18 05:47:11;;;;;;;639.67;606.33;;;0.20;99.90;;;;;;5102506;28;20512;-73
2023/01/18 05:49:36;;;;;;;512.00;489.20;;;0.30;99.90;;;;;;5094929;28;20054;-72
2023/01/18 05:52:02;;;;;;;493.25;471.90;;;0.30;99.90;;;;;;5082890;28;20066;-74
2023/01/18 05:54:28;;;;;;;573.05;545.75;;;0.30;99.90;;;;;;5092765;28;20551;-73
2023/01/18 05:56:53;;;;;;;436.35;415.70;;;0.30;99.90;;;;;;5085798;28;20119;-73
2023/01/18 05:59:19;;;;;;;878.67;609.92;;;0.40;99.90;;;;;;5084853;28;20047;-73
2023/01/18 06:01:45;;;;;;;584.20;555.80;;;0.40;99.90;;;;;;5086965;28;20059;-73
2023/01/18 06:04:10;;;;;;;554.25;528.65;;;0.40;99.90;;;;;;5081936;28;20043;-73
2023/01/18 06:06:36;;;;;;;670.00;632.47;;;0.40;99.90;;;;;;5093583;28;20128;-73
2023/01/18 06:09:02;;;;;;;570.33;542.05;;;0.30;99.90;;;;;;5094509;28;20027;-74
2023/01/18 06:11:28;;;;;;;657.80;621.50;;;0.30;99.90;;;;;;5089768;28;20029;-73
2023/01/18 06:13:53;;;;;;;511.02;488.60;;;0.30;99.90;;;;;;5095044;28;20043;-73
2023/01/18 06:16:19;;;;;;;561.50;527.35;;;0.30;99.90;;;;;;5089671;28;20033;-74
2023/01/18 06:18:45;;;;;;;613.83;580.05;;;0.30;99.90;;;;;;5095462;28;20177;-74
2023/01/18 06:21:10;;;;;;;692.78;646.67;;;0.30;99.90;;;;;;5091578;28;20024;-75
2023/01/18 06:23:37;;;;;;;770.75;723.20;;;0.30;99.90;;;;;;5084888;28;20111;-74
2023/01/18 06:26:03;;;;;;;610.83;570.22;;;0.30;99.90;;;;;;5071590;28;20036;-77
2023/01/18 06:28:31;;;;;;;753.33;709.30;;;0.30;99.90;;;;;;5091213;28;20027;-81
2023/01/18 06:30:57;;;;;;;833.38;781.53;;;0.40;99.90;;;;;;5091911;28;20032;-78
2023/01/18 06:33:23;;;;;;;637.95;599.92;;;0.30;99.90;;;;;;5115802;27;20032;-78
2023/01/18 06:35:49;;;;;;;1378.18;850.13;;;0.30;99.90;;;;;;5081941;28;20485;-80
2023/01/18 06:38:16;;;;;;;751.63;681.40;;;0.40;99.90;;;;;;5089371;28;20046;-78
2023/01/18 06:40:41;;;;;;;729.30;615.97;;;0.30;99.90;;;;;;5087576;28;20117;-79
2023/01/18 06:43:09;;;;;;;1654.75;893.75;;;0.30;99.90;;;;;;5100045;28;20631;-79
2023/01/18 06:45:34;;;;;;;967.45;678.05;;;0.20;99.90;;;;;;5092887;28;20040;-73
2023/01/18 06:48:00;;;;;;;797.33;514.50;;;0.20;99.90;;;;;;5091493;28;20100;-78
2023/01/18 06:50:27;;;;;;;1999.90;999.90;;;0.20;99.90;;;;;;5098686;28;20725;-78
2023/01/18 06:52:54;;;;;;;948.90;659.20;;;0.20;99.90;;;;;;5071575;28;20039;-79
2023/01/18 06:55:20;;;;;;;1999.90;999.90;;;0.20;99.90;;;;;;5099137;28;20104;-78
2023/01/18 06:57:46;;;;;;;1072.93;789.72;;;0.20;99.90;;;;;;5070770;28;20072;-79
2023/01/18 07:00:15;;;;;;;874.85;815.50;;;0.20;99.90;;;;;;5098821;28;20510;-78
2023/01/18 07:02:41;;;;;;;688.05;639.75;;;0.20;99.90;;;;;;5095750;28;20028;-79
2023/01/18 07:05:07;;;;;;;781.17;733.90;;;0.20;99.90;;;;;;5101424;28;20031;-78
2023/01/18 07:07:32;;;;;;;718.13;676.80;;;0.10;99.90;;;;;;5098751;28;20032;-79
2023/01/18 07:09:58;;;;;;;657.30;618.72;;;0.20;99.90;;;;;;5094820;28;20036;-78
2023/01/18 07:12:24;;;;;;;614.85;574.08;;;0.20;99.90;;;;;;5101490;28;20031;-78
2023/01/18 07:14:50;;;;;;;699.47;654.35;;;0.20;99.90;;;;;;5077185;28;20089;-78
2023/01/18 07:17:16;;;;;;;729.28;688.13;;;0.30;99.90;;;;;;5088268;28;20501;-79
2023/01/18 07:19:41;;;;;;;633.25;594.72;;;0.30;99.90;;;;;;5098120;28;20509;-78
2023/01/18 07:22:07;;;;;;;669.03;631.38;;;0.30;99.90;;;;;;5095617;28;20535;-79
2023/01/18 07:24:32;;;;;;;698.03;657.60;;;0.30;99.90;;;;;;5096827;28;20429;-80
2023/01/18 07:26:58;;;;;;;647.00;610.97;;;0.30;99.90;;;;;;5094878;28;20028;-79
2023/01/18 07:29:24;;;;;;;565.35;538.67;;;0.30;99.90;;;;;;5103815;28;20024;-78
2023/01/18 07:31:50;;;;;;;572.33;545.70;;;0.30;99.90;;;;;;5097934;28;20020;-77
2023/01/18 07:34:16;;;;;;;665.40;602.28;;;0.30;99.90;;;;;;5097675;28;20028;-78
2023/01/18 07:36:42;;;;;;;778.03;714.67;;;0.30;99.90;;;;;;5097253;28;20031;-79
2023/01/18 07:39:08;;;;;;;554.63;528.42;;;0.30;99.90;;;;;;5091144;28;20066;-78
2023/01/18 07:41:34;;;;;;;535.08;508.58;;;0.30;99.90;;;;;;5102224;28;20032;-80
2023/01/18 07:44:00;;;;;;;566.55;535.33;;;0.40;99.90;;;;;;5092367;28;20030;-79
2023/01/18 07:46:25;;;;;;;569.15;540.80;;;0.40;99.90;;;;;;5102951;28;20493;-79
2023/01/18 07:48:52;;;;;;;477.95;456.48;;;0.40;99.90;;;;;;5094782;28;20039;-79
2023/01/18 07:51:20;;;;;;;540.40;491.23;;;0.30;99.90;;;;;;5095691;28;20534;-79
2023/01/18 07:53:47;;;;;;;676.20;638.47;;;0.20;99.90;;;;;;5093427;28;20029;-79
2023/01/18 07:56:16;;;;;;;683.28;644.50;;;0.00;99.90;;;;;;5094514;28;20110;-80
2023/01/18 07:58:41;;;;;;;596.20;567.97;;;-0.10;99.90;;;;;;5090518;28;20085;-79
2023/01/18 08:01:13;;;;;;;449.08;422.92;;;-0.10;99.90;;;;;;5074706;28;20048;-78
2023/01/18 08:03:40;;;;;;;666.90;633.33;;;-0.20;99.90;;;;;;5087729;28;20023;-79
2023/01/18 08:06:07;;;;;;;672.08;626.92;;;-0.10;99.90;;;;;;5093775;28;20093;-78
2023/01/18 08:08:35;;;;;;;694.47;655.80;;;-0.10;99.90;;;;;;5098175;28;20027;-79
2023/01/18 08:11:02;;;;;;;735.83;693.83;;;0.00;99.90;;;;;;5076990;28;20073;-78
2023/01/18 08:13:28;;;;;;;636.80;594.33;;;0.00;99.90;;;;;;5091541;28;20032;-78
2023/01/18 08:15:54;;;;;;;630.13;598.55;;;0.00;99.90;;;;;;5103452;28;20035;-78
2023/01/18 08:18:20;;;;;;;649.80;611.00;;;0.10;99.90;;;;;;5093244;28;20456;-79
2023/01/18 08:20:48;;;;;;;525.67;489.80;;;0.00;99.90;;;;;;5098283;28;20027;-79
2023/01/18 08:23:15;;;;;;;577.38;549.92;;;-0.10;99.90;;;;;;5092874;28;20056;-78
2023/01/18 08:25:42;;;;;;;428.45;410.77;;;-0.10;99.90;;;;;;5089047;28;20027;-79
2023/01/18 08:28:09;;;;;;;517.97;493.48;;;0.00;99.90;;;;;;5098440;28;20036;-79
2023/01/18 08:30:37;;;;;;;436.80;417.05;;;0.00;99.90;;;;;;5090664;28;20394;-78
2023/01/18 08:33:04;;;;;;;281.27;269.27;;;0.10;99.90;;;;;;5093101;28;20123;-80
2023/01/18 08:35:39;;;;;;;365.40;349.77;;;0.00;99.90;;;;;;5085049;28;20085;-79
2023/01/18 08:38:05;;;;;;;369.75;354.77;;;0.00;99.90;;;;;;5095305;28;20036;-78
2023/01/18 08:40:30;;;;;;;226.43;217.90;;;0.10;99.90;;;;;;5088055;28;20043;-78
2023/01/18 08:43:02;;;;;;;400.10;382.60;;;0.10;99.90;;;;;;5085666;28;20028;-78
2023/01/18 08:45:28;;;;;;;333.60;320.92;;;0.10;99.90;;;;;;5094507;28;20191;-78
2023/01/18 08:47:59;;;;;;;274.55;261.13;;;0.20;99.90;;;;;;5078214;28;20036;-80
2023/01/18 08:50:25;;;;;;;;;;;0.20;99.90;;;;;;5091271;28;20070;-77
2023/01/18 08:52:52;;;;;;;120.15;115.88;;;0.20;99.90;;;;;;5089103;28;19954;-78
2023/01/18 08:55:19;;;;;;;156.18;150.32;;;0.20;99.90;;;;;;5081641;28;20032;-78
2023/01/18 08:57:45;;;;;;;224.50;212.90;;;0.20;99.90;;;;;;5082518;28;20405;-79
2023/01/18 09:00:11;;;;;;;155.68;150.05;;;0.30;99.90;;;;;;5094568;28;20036;-78
2023/01/18 09:02:38;;;;;;;172.45;166.27;;;0.40;99.90;;;;;;5079691;28;20052;-78
2023/01/18 09:05:04;;;;;;;131.05;126.28;;;0.40;99.90;;;;;;5066826;28;20036;-78
2023/01/18 09:07:29;;;;;;;168.38;157.85;;;0.40;99.90;;;;;;5088274;28;20024;-78
2023/01/18 09:09:55;;;;;;;221.77;211.48;;;0.40;99.90;;;;;;5077621;28;20060;-78
2023/01/18 09:12:21;;;;;;;112.00;107.97;;;0.40;99.90;;;;;;5075250;28;20040;-78
2023/01/18 09:14:48;;;;;;;120.05;115.35;;;0.50;99.90;;;;;;5080896;28;20487;-78
2023/01/18 09:17:16;;;;;;;100.53;96.82;;;0.50;99.90;;;;;;5078069;28;20085;-78
2023/01/18 09:19:42;;;;;;;112.63;108.45;;;0.50;99.90;;;;;;5084944;28;20032;-79
2023/01/18 09:22:09;;;;;;;137.40;131.15;;;0.50;99.90;;;;;;5063237;28;20040;-78
2023/01/18 09:24:35;;;;;;;87.93;84.70;;;0.60;99.90;;;;;;5096565;28;20058;-78
2023/01/18 09:27:03;;;;;;;101.28;97.63;;;0.50;99.90;;;;;;5095405;28;20057;-79
2023/01/18 09:29:30;;;;;;;63.20;60.92;;;0.70;99.90;;;;;;5087042;28;20074;-79
2023/01/18 09:31:56;;;;;;;144.50;136.43;;;0.80;99.90;;;;;;5074684;28;20032;-79
2023/01/18 09:34:22;;;;;;;57.92;55.42;;;0.60;99.90;;;;;;5091398;28;20119;-79
2023/01/18 09:36:50;;;;;;;81.97;79.05;;;0.70;99.90;;;;;;5098445;28;20054;-79
2023/01/18 09:39:16;;;;;;;96.82;93.28;;;0.70;99.90;;;;;;5090591;28;20072;-77
2023/01/18 09:41:51;;;;;;;61.30;59.03;;;0.60;99.90;;;;;;5093224;28;20040;-78
2023/01/18 09:44:17;;;;;;;58.00;55.85;;;0.60;99.90;;;;;;5089489;28;20034;-78
2023/01/18 09:46:44;;;;;;;86.47;81.80;;;0.70;99.90;;;;;;5087574;28;20020;-78
2023/01/18 09:49:20;;;;;;;48.22;46.40;;;0.60;99.90;;;;;;5079335;28;20049;-77
2023/01/18 09:52:18;;;;;;;49.90;47.95;;;0.70;99.90;;;;;;5096609;28;20114;-79
2023/01/18 09:55:05;;;;;;;38.80;37.10;;;0.80;99.90;;;;;;5085916;28;20537;-78
2023/01/18 09:57:49;;;;;;;33.05;31.65;;;0.90;99.90;;;;;;5096182;28;20023;-78
2023/01/18 10:00:20;;;;;;;30.85;29.63;;;1.20;99.90;;;;;;5097424;28;20024;-78
2023/01/18 10:02:49;;;;;;;55.72;53.63;;;1.20;99.90;;;;;;5091389;28;20032;-79
2023/01/18 10:05:20;;;;;;;37.67;36.22;;;1.30;99.90;;;;;;5065856;28;20084;-78
2023/01/18 10:08:01;;;;;;;33.72;32.42;;;1.30;99.90;;;;;;5093975;28;20031;-78
2023/01/18 10:10:31;;;;;;;;;;;1.30;99.30;;;;;;5094864;28;20054;-78
2023/01/18 10:13:18;;;;;;;17.10;16.30;;;1.50;99.90;;;;;;5096765;28;20014;-78
2023/01/18 10:15:44;;;;;;;24.80;23.88;;;1.90;98.90;;;;;;5095619;28;20730;-79
2023/01/18 10:18:14;;;;;;;44.65;42.92;;;1.90;97.90;;;;;;5078733;28;20057;-79
2023/01/18 10:20:54;;;;;;;25.77;24.63;;;1.90;99.20;;;;;;5095463;28;20734;-78
2023/01/18 10:24:02;;;;;;;54.92;50.00;;;1.80;97.60;;;;;;5099081;28;20572;-79
2023/01/18 10:26:30;;;;;;;18.73;17.95;;;1.60;97.50;;;;;;5092856;28;20032;-79
2023/01/18 10:29:14;;;;;;;20.85;19.85;;;1.50;98.60;;;;;;5101328;28;20031;-79
2023/01/18 10:31:46;;;;;;;23.67;22.67;;;1.50;99.90;;;;;;5095164;28;20024;-79
2023/01/18 10:34:20;;;;;;;37.33;35.88;;;1.60;99.90;;;;;;5099410;28;20671;-79
2023/01/18 10:36:57;;;;;;;20.58;19.75;;;1.50;98.00;;;;;;5082424;28;20110;-78
2023/01/18 10:39:40;;;;;;;23.50;22.63;;;1.30;98.10;;;;;;5093361;28;20134;-79
2023/01/18 10:42:28;;;;;;;18.70;17.75;;;1.40;98.10;;;;;;5097517;28;20060;-79
2023/01/18 10:44:54;;;;;;;26.42;25.42;;;1.40;96.80;;;;;;5085841;28;20024;-79
2023/01/18 10:47:20;;;;;;;21.98;21.00;;;1.40;95.90;;;;;;5101894;28;20340;-78
2023/01/18 10:49:49;;;;;;;25.70;24.70;;;1.40;95.80;;;;;;5095340;28;20393;-78
2023/01/18 10:52:27;;;;;;;28.02;26.92;;;1.50;96.70;;;;;;5090045;28;20110;-78
2023/01/18 10:55:02;;;;;;;18.55;17.85;;;1.50;97.00;;;;;;5081139;28;20021;-64
2023/01/18 10:57:50;;;;;;;52.40;50.17;;;1.60;95.80;;;;;;5091761;28;20104;-70
2023/01/18 11:00:32;;;;;;;27.00;25.85;;;1.40;95.00;;;;;;5089776;28;20031;-71
2023/01/18 11:02:59;;;;;;;33.72;32.38;;;1.20;95.80;;;;;;5102888;28;20096;-69
2023/01/18 11:05:32;;;;;;;47.55;45.00;;;1.20;94.70;;;;;;5093323;28;20094;-70
2023/01/18 11:08:23;;;;;;;52.83;49.95;;;1.30;94.10;;;;;;5090759;28;20608;-70
2023/01/18 11:11:03;;;;;;;47.00;44.83;;;1.20;94.70;;;;;;5095492;28;20063;-71
2023/01/18 11:13:33;;;;;;;16.80;16.00;;;1.30;94.60;;;;;;5093319;28;20393;-70
2023/01/18 11:16:04;;;;;;;29.13;27.85;;;1.10;94.60;;;;;;5099443;28;20062;-70
2023/01/18 11:18:29;;;;;;;20.42;19.50;;;1.20;94.90;;;;;;5092049;28;20043;-70
2023/01/18 11:20:56;;;;;;;30.88;29.50;;;1.10;96.60;;;;;;5102560;28;20027;-70
2023/01/18 11:23:36;;;;;;;13.75;13.15;;;1.10;93.80;;;;;;5096463;28;20031;-71
2023/01/18 11:26:28;;;;;;;16.08;15.35;;;1.00;92.80;;;;;;5095554;28;20727;-70
2023/01/18 11:29:05;;;;;;;16.35;15.50;;;1.30;94.10;;;;;;5093761;28;20077;-70
2023/01/18 11:31:44;;;;;;;16.67;16.02;;;1.20;92.70;;;;;;5096667;28;20494;-70
2023/01/18 11:34:30;;;;;;;16.00;15.30;;;1.00;93.90;;;;;;5094073;28;20040;-70
2023/01/18 11:36:57;;;;;;;18.02;17.00;;;0.90;94.50;;;;;;5092594;28;20026;-71
2023/01/18 11:39:28;;;;;;;26.45;25.27;;;0.90;94.60;;;;;;5087682;28;20065;-72
2023/01/18 11:42:33;;;;;;;21.00;20.02;;;0.90;94.60;;;;;;5094893;28;20084;-72
2023/01/18 11:45:35;;;;;;;23.25;22.05;;;1.00;96.10;;;;;;5098321;28;20016;-73
2023/01/18 11:48:06;;;;;;;22.70;21.70;;;0.80;95.10;;;;;;5094426;28;20442;-77
2023/01/18 11:50:41;;;;;;;18.55;17.48;;;0.70;96.10;;;;;;5097933;28;20386;-77
2023/01/18 11:53:20;;;;;;;93.47;87.03;;;0.80;95.10;;;;;;5096062;28;20028;-77
2023/01/18 11:56:08;;;;;;;18.65;17.90;;;0.80;95.40;;;;;;5100119;28;20024;-77
2023/01/18 11:58:35;;;;;;;21.92;20.90;;;1.00;95.40;;;;;;5089596;28;20434;-78
2023/01/18 12:01:12;;;;;;;28.48;27.27;;;1.00;96.10;;;;;;5092137;28;20644;-78
2023/01/18 12:04:12;;;;;;;26.58;25.25;;;0.90;95.80;;;;;;5092924;28;20023;-80
2023/01/18 12:07:22;;;;;;;18.27;17.48;;;0.90;95.70;;;;;;5092936;28;20040;-80
2023/01/18 12:09:54;;;;;;;19.63;18.73;;;0.70;94.90;;;;;;5079896;28;20040;-79
2023/01/18 12:12:28;;;;;;;19.38;18.45;;;0.80;95.40;;;;;;5091639;28;20054;-79
2023/01/18 12:15:15;;;;;;;29.30;27.55;;;0.80;96.20;;;;;;5092050;28;20546;-80
2023/01/18 12:18:00;;;;;;;15.27;14.57;;;0.80;95.20;;;;;;5094265;28;20027;-79
2023/01/18 12:21:08;;;;;;;13.95;13.00;;;0.70;94.00;;;;;;5090151;28;20027;-80
2023/01/18 12:24:07;;;;;;;13.10;12.50;;;0.70;93.90;;;;;;5096691;28;20575;-80
2023/01/18 12:26:35;;;;;;;14.25;13.60;;;0.70;94.40;;;;;;5074982;28;20434;-80
2023/01/18 12:29:23;;;;;;;28.63;27.30;;;0.70;93.30;;;;;;5090011;28;20059;-80
2023/01/18 12:32:17;;;;;;;17.40;16.60;;;0.80;93.80;;;;;;5095409;28;20024;-80
2023/01/18 12:34:58;;;;;;;67.10;60.45;;;0.80;93.90;;;;;;5095140;28;20035;-80
2023/01/18 12:37:42;;;;;;;38.70;35.35;;;0.80;92.90;;;;;;5079532;28;20038;-80
2023/01/18 12:40:41;;;;;;;14.82;14.18;;;0.90;93.70;;;;;;5092391;28;20094;-79
2023/01/18 12:43:19;;;;;;;19.35;18.25;;;1.10;93.00;;;;;;5092904;28;20035;-79
2023/01/18 12:46:06;;;;;;;17.70;16.52;;;1.00;93.30;;;;;;5079629;28;20117;-80
2023/01/18 12:48:52;;;;;;;15.18;14.38;;;1.00;93.90;;;;;;5095980;28;20400;-79
2023/01/18 12:51:21;;;;;;;15.43;14.73;;;1.00;92.90;;;;;;5084985;28;20393;-81
2023/01/18 12:53:50;;;;;;;15.30;14.55;;;1.00;93.80;;;;;;5096615;28;20032;-80
2023/01/18 12:56:33;;;;;;;17.85;16.75;;;0.90;93.60;;;;;;5085015;28;20107;-80
2023/01/18 12:59:10;;;;;;;25.08;23.88;;;0.70;93.60;;;;;;5090150;28;20027;-80
2023/01/18 13:01:43;;;;;;;27.25;25.70;;;0.70;94.20;;;;;;5091935;28;20084;-81
2023/01/18 13:04:23;;;;;;;18.13;17.25;;;0.70;93.90;;;;;;5081522;28;20043;-81
2023/01/18 13:06:54;;;;;;;21.90;20.98;;;0.50;95.00;;;;;;5087313;28;20016;-84
2023/01/18 13:09:32;;;;;;;17.67;16.85;;;0.40;95.80;;;;;;5080940;28;20032;-83
2023/01/18 13:12:03;;;;;;;20.05;18.95;;;0.20;95.20;;;;;;5091970;28;20025;-84